createdAt,value
2018-12-20T01:23:17.797Z,-2.80
2018-12-20T01:31:44.526Z,-2.82
2018-12-20T01:40:08.503Z,-2.97
2018-12-20T01:45:46.197Z,-2.98
2018-12-20T01:48:31.755Z,-3.03
2018-12-20T01:59:48.884Z,-3.08
2018-12-20T02:02:39.366Z,-3.11
2018-12-20T02:05:38.744Z,-3.15
2018-12-20T02:08:24.383Z,-3.15
2018-12-20T02:11:23.606Z,-3.13
2018-12-20T02:17:01.361Z,-3.18
2018-12-20T02:22:39.148Z,-3.17
2018-12-20T02:25:25.863Z,-3.18
2018-12-20T02:28:24.786Z,-3.18
2018-12-20T02:31:10.522Z,-3.18
2018-12-20T02:36:19.278Z,-3.18
2018-12-20T02:38:59.333Z,-3.13
2018-12-20T02:41:41.617Z,-3.05
2018-12-20T02:44:23.053Z,-3.00
2018-12-20T02:47:07.440Z,-3.00
2018-12-20T02:49:35.001Z,-3.02
2018-12-20T02:52:02.633Z,-3.05
2018-12-20T02:54:30.386Z,-3.11
2018-12-20T03:00:02.889Z,-3.21
2018-12-20T03:02:30.655Z,-3.23
2018-12-20T03:05:10.782Z,-3.29
2018-12-20T03:07:51.413Z,-3.24
2018-12-20T03:10:19.137Z,-3.26
2018-12-20T03:13:00.245Z,-3.20
2018-12-20T03:15:40.484Z,-3.16
2018-12-20T03:18:20.718Z,-3.10
2018-12-20T03:23:58.257Z,-3.05
2018-12-20T03:26:38.824Z,-3.02
2018-12-20T03:32:12.837Z,-3.03
2018-12-20T03:34:53.135Z,-3.04
2018-12-20T03:37:33.319Z,-3.05
2018-12-20T03:40:14.046Z,-3.04
2018-12-20T03:42:54.563Z,-3.10
2018-12-20T03:45:28.626Z,-3.13
2018-12-20T05:16:47.422Z,-4.59
2018-12-20T05:19:27.560Z,-4.64
2018-12-20T05:22:07.968Z,-4.39
2018-12-20T05:24:48.390Z,-4.43
2018-12-20T05:27:28.977Z,-4.41
2018-12-20T05:36:00.313Z,-4.15
2018-12-20T05:38:27.946Z,-4.17
2018-12-20T05:40:55.663Z,-4.16
2018-12-20T05:43:36.287Z,-4.13
2018-12-20T05:46:16.431Z,-4.00
2018-12-20T05:51:57.510Z,-4.15
2018-12-20T05:54:25.247Z,-4.20
2018-12-20T05:57:06.252Z,-4.07
2018-12-20T05:59:33.876Z,-4.13
2018-12-20T06:02:13.935Z,-4.03
2018-12-20T06:04:41.482Z,-3.89
2018-12-20T06:07:21.874Z,-3.84
2018-12-20T06:10:02.389Z,-3.86
2018-12-20T06:12:29.969Z,-3.62
2018-12-20T06:14:57.615Z,-3.44
2018-12-20T06:17:37.869Z,-3.33
2018-12-20T06:20:05.667Z,-2.94
2018-12-20T06:22:46.962Z,-2.92
2018-12-20T06:25:26.611Z,-2.64
2018-12-20T06:27:54.444Z,-2.48
2018-12-20T06:30:23.878Z,-2.42
2018-12-20T06:32:52.915Z,-2.19
2018-12-20T06:35:20.716Z,-1.95
2018-12-20T06:37:48.515Z,-1.74
2018-12-20T06:40:16.467Z,-1.53
2018-12-20T06:42:50.367Z,-1.37
2018-12-20T06:45:17.916Z,-1.20
2018-12-20T06:47:45.513Z,-1.21
2018-12-20T06:50:13.135Z,-1.09
2018-12-20T06:52:41.453Z,-0.79
2018-12-20T06:55:10.074Z,-0.44
2018-12-20T06:57:37.675Z,-0.49
2018-12-20T07:00:09.747Z,-0.43
2018-12-20T07:02:38.540Z,-0.42
2018-12-20T07:05:06.539Z,-0.18
2018-12-20T07:07:34.087Z,-0.19
2018-12-20T07:10:01.675Z,0.02
2018-12-20T07:12:29.543Z,0.19
2018-12-20T07:14:57.160Z,0.15
2018-12-20T07:17:24.957Z,-0.17
2018-12-20T07:19:52.521Z,-0.38
2018-12-20T07:22:21.661Z,-0.22
2018-12-20T07:24:50.331Z,-0.37
2018-12-20T07:27:17.966Z,-0.43
2018-12-20T07:29:46.652Z,-0.30
2018-12-20T07:32:14.234Z,-0.37
2018-12-20T07:34:47.872Z,-0.13
2018-12-20T07:37:11.641Z,-0.22
2018-12-20T07:39:39.237Z,-0.23
2018-12-20T07:42:07.032Z,0.02
2018-12-20T07:44:37.557Z,-0.01
2018-12-20T07:47:05.053Z,0.11
2018-12-20T07:49:32.716Z,0.36
2018-12-20T07:52:00.373Z,0.56
2018-12-20T07:54:27.972Z,0.31
2018-12-20T07:56:55.525Z,0.40
2018-12-20T07:59:23.649Z,0.91
2018-12-20T08:01:52.623Z,0.83
2018-12-20T08:04:21.115Z,0.51
2018-12-20T08:06:48.665Z,0.87
2018-12-20T08:09:17.021Z,1.06
2018-12-20T08:11:45.566Z,1.09
2018-12-20T08:14:13.108Z,1.39
2018-12-20T08:16:45.983Z,1.35
2018-12-20T08:19:10.239Z,1.36
2018-12-20T08:21:39.656Z,1.74
2018-12-20T08:24:10.265Z,0.96
2018-12-20T08:26:38.351Z,0.94
2018-12-20T08:29:15.202Z,1.07
2018-12-20T08:31:44.261Z,1.51
2018-12-20T08:34:12.314Z,1.69
2018-12-20T08:36:41.932Z,1.78
2018-12-20T08:39:09.831Z,1.95
2018-12-20T08:41:38.966Z,2.11
2018-12-20T08:44:09.140Z,1.79
2018-12-20T08:46:39.802Z,1.54
2018-12-20T08:49:09.834Z,1.32
2018-12-20T08:51:38.781Z,1.35
2018-12-20T08:54:08.283Z,1.39
2018-12-20T08:56:38.519Z,1.44
2018-12-20T08:59:06.380Z,1.40
2018-12-20T09:01:34.913Z,1.32
2018-12-20T09:04:04.545Z,1.31
2018-12-20T09:06:32.510Z,1.44
2018-12-20T09:09:00.577Z,0.94
2018-12-20T09:11:28.396Z,0.64
2018-12-20T09:13:56.115Z,0.92
2018-12-20T09:16:27.923Z,1.06
2018-12-20T09:18:55.668Z,1.14
2018-12-20T09:21:25.284Z,0.74
2018-12-20T09:23:54.892Z,0.97
2018-12-20T09:26:23.378Z,0.56
2018-12-20T09:28:53.928Z,0.49
2018-12-20T09:31:22.101Z,1.05
2018-12-20T09:33:50.925Z,1.04
2018-12-20T09:36:18.620Z,1.42
2018-12-20T09:38:49.019Z,1.43
2018-12-20T09:41:20.003Z,1.61
2018-12-20T09:43:48.093Z,1.65
2018-12-20T09:46:16.067Z,1.55
2018-12-20T09:48:46.411Z,1.75
2018-12-20T09:51:15.228Z,1.71
2018-12-20T09:53:44.664Z,1.51
2018-12-20T09:56:13.798Z,1.75
2018-12-20T09:58:42.293Z,1.55
2018-12-20T10:01:12.466Z,1.25
2018-12-20T10:03:41.266Z,1.34
2018-12-20T10:06:11.167Z,1.50
2018-12-20T10:08:38.727Z,1.40
2018-12-20T10:11:06.331Z,0.97
2018-12-20T10:13:33.877Z,1.02
2018-12-20T10:16:01.505Z,1.03
2018-12-20T10:18:29.132Z,1.27
2018-12-20T10:20:56.693Z,1.15
2018-12-20T10:23:25.214Z,1.29
2018-12-20T10:25:52.806Z,1.22
2018-12-20T10:28:20.360Z,1.34
2018-12-20T10:30:48.256Z,1.09
2018-12-20T10:33:17.707Z,1.07
2018-12-20T10:35:46.650Z,0.82
2018-12-20T10:38:15.517Z,1.03
2018-12-20T10:40:45.754Z,0.89
2018-12-20T10:43:15.210Z,0.83
2018-12-20T10:45:44.240Z,1.15
2018-12-20T10:48:13.265Z,0.84
2018-12-20T10:50:42.337Z,0.97
2018-12-20T10:53:11.153Z,0.82
2018-12-20T10:55:40.583Z,1.17
2018-12-20T10:58:08.443Z,1.33
2018-12-20T11:00:44.035Z,0.95
2018-12-20T11:03:17.368Z,1.08
2018-12-20T11:05:51.066Z,1.23
2018-12-20T11:08:23.914Z,1.17
2018-12-20T11:10:53.856Z,1.27
2018-12-20T11:13:25.756Z,1.10
2018-12-20T11:15:53.488Z,0.90
2018-12-20T11:18:22.349Z,1.14
2018-12-20T11:20:50.150Z,1.11
2018-12-20T11:23:17.911Z,1.23
2018-12-20T11:25:46.691Z,1.12
2018-12-20T11:28:16.137Z,0.94
2018-12-20T11:30:43.920Z,1.07
2018-12-20T11:33:12.677Z,0.97
2018-12-20T11:35:40.294Z,1.00
2018-12-20T11:38:08.147Z,0.96
2018-12-20T11:40:36.817Z,1.16
2018-12-20T11:43:05.577Z,1.46
2018-12-20T11:45:33.149Z,1.68
2018-12-20T11:48:00.803Z,1.75
2018-12-20T11:50:28.371Z,1.49
2018-12-20T11:52:56.757Z,1.86
2018-12-20T11:55:37.110Z,1.92
2018-12-20T11:58:04.719Z,1.82
2018-12-20T12:00:34.285Z,2.01
2018-12-20T12:03:01.834Z,1.25
2018-12-20T12:05:29.687Z,1.11
2018-12-20T12:07:57.236Z,1.15
2018-12-20T12:10:24.796Z,1.44
2018-12-20T12:12:52.354Z,1.20
2018-12-20T12:15:19.943Z,1.17
2018-12-20T12:17:54.237Z,1.47
2018-12-20T12:20:18.137Z,1.57
2018-12-20T12:22:45.671Z,1.68
2018-12-20T12:25:13.221Z,2.01
2018-12-20T12:27:40.812Z,1.83
2018-12-20T12:30:09.164Z,2.38
2018-12-20T12:32:36.757Z,2.70
2018-12-20T12:35:04.724Z,2.78
2018-12-20T12:37:32.317Z,2.41
2018-12-20T12:39:59.869Z,2.51
2018-12-20T12:42:27.396Z,2.63
2018-12-20T12:44:55.211Z,2.63
2018-12-20T12:47:24.778Z,2.85
2018-12-20T12:49:52.386Z,2.85
2018-12-20T12:52:20.019Z,2.48
2018-12-20T12:54:47.697Z,2.70
2018-12-20T12:57:15.452Z,2.74
2018-12-20T12:59:42.993Z,2.88
2018-12-20T13:02:10.654Z,2.90
2018-12-20T13:04:38.258Z,2.72
2018-12-20T13:07:05.807Z,2.73
2018-12-20T13:09:33.386Z,2.83
2018-12-20T13:12:00.947Z,2.67
2018-12-20T13:14:28.495Z,2.61
2018-12-20T13:16:56.055Z,2.45
2018-12-20T13:19:24.281Z,2.56
2018-12-20T13:21:51.945Z,2.27
2018-12-20T13:24:19.495Z,2.35
2018-12-20T13:26:47.088Z,2.41
2018-12-20T13:29:14.637Z,2.28
2018-12-20T13:31:42.196Z,1.96
2018-12-20T13:34:09.785Z,1.92
2018-12-20T13:36:38.237Z,1.90
2018-12-20T13:39:06.532Z,1.90
2018-12-20T13:41:34.102Z,1.75
2018-12-20T13:44:01.699Z,1.85
2018-12-20T13:46:29.301Z,1.76
2018-12-20T13:48:56.882Z,1.53
2018-12-20T13:51:24.571Z,1.47
2018-12-20T13:53:52.173Z,1.52
2018-12-20T13:56:19.782Z,1.61
2018-12-20T13:58:47.426Z,1.70
2018-12-20T14:01:14.999Z,1.77
2018-12-20T14:03:42.589Z,1.62
2018-12-20T14:06:10.260Z,1.47
2018-12-20T14:08:37.793Z,1.52
2018-12-20T14:11:06.961Z,1.45
2018-12-20T14:13:34.700Z,1.27
2018-12-20T14:16:02.255Z,1.26
2018-12-20T14:18:31.087Z,1.36
2018-12-20T14:20:59.109Z,1.11
2018-12-20T14:23:26.817Z,1.31
2018-12-20T14:25:54.627Z,1.37
2018-12-20T14:28:22.185Z,1.17
2018-12-20T14:30:49.777Z,1.08
2018-12-20T14:33:17.473Z,1.05
2018-12-20T14:35:45.018Z,0.93
2018-12-20T14:38:13.941Z,0.78
2018-12-20T14:40:41.496Z,0.70
2018-12-20T14:43:09.717Z,0.66
2018-12-20T14:45:37.277Z,0.60
2018-12-20T14:48:04.805Z,0.50
2018-12-20T14:50:32.365Z,0.59
2018-12-20T14:52:59.921Z,0.61
2018-12-20T14:55:27.595Z,0.53
2018-12-20T14:57:55.171Z,0.49
2018-12-20T15:00:22.807Z,0.24
2018-12-20T15:02:50.354Z,0.23
2018-12-20T15:05:18.883Z,0.14
2018-12-20T15:07:46.512Z,0.11
2018-12-20T15:10:14.195Z,0.17
2018-12-20T15:12:41.822Z,0.24
2018-12-20T15:15:09.383Z,0.21
2018-12-20T15:17:37.186Z,0.12
2018-12-20T15:20:06.816Z,0.12
2018-12-20T15:22:34.367Z,0.13
2018-12-20T15:25:01.954Z,0.18
2018-12-20T15:27:29.514Z,0.19
2018-12-20T15:29:57.067Z,0.27
2018-12-20T15:32:24.613Z,0.23
2018-12-20T15:34:52.206Z,0.32
2018-12-20T15:37:20.558Z,0.36
2018-12-20T15:39:48.109Z,0.57
2018-12-20T15:42:15.736Z,0.54
2018-12-20T15:44:43.311Z,0.31
2018-12-20T15:47:10.912Z,0.28
2018-12-20T15:49:42.027Z,0.20
2018-12-20T15:52:08.453Z,0.25
2018-12-20T15:54:36.044Z,0.22
2018-12-20T15:57:03.627Z,0.17
2018-12-20T15:59:31.187Z,0.28
2018-12-20T16:01:58.775Z,0.37
2018-12-20T16:04:26.353Z,0.16
2018-12-20T16:06:53.892Z,0.13
2018-12-20T16:09:21.450Z,0.19
2018-12-20T16:11:48.992Z,0.18
2018-12-20T16:14:16.588Z,0.23
2018-12-20T16:16:44.147Z,0.16
2018-12-20T16:19:11.737Z,0.12
2018-12-20T16:21:39.285Z,0.15
2018-12-20T16:24:06.823Z,0.25
2018-12-20T16:26:34.418Z,0.14
2018-12-20T16:29:02.044Z,0.35
2018-12-20T16:31:29.677Z,0.21
2018-12-20T16:33:57.234Z,0.15
2018-12-20T16:36:24.829Z,0.29
2018-12-20T16:38:53.219Z,0.15
2018-12-20T16:41:20.850Z,0.05
2018-12-20T16:43:49.441Z,-0.01
2018-12-20T16:46:17.969Z,-0.07
2018-12-20T16:48:45.517Z,0.03
2018-12-20T16:51:14.010Z,0.20
2018-12-20T16:53:41.571Z,0.17
2018-12-20T16:56:09.230Z,-0.15
2018-12-20T16:58:36.793Z,-0.02
2018-12-20T17:01:05.305Z,0.05
2018-12-20T17:03:32.852Z,0.18
2018-12-20T17:06:00.448Z,0.25
2018-12-20T17:08:27.989Z,0.22
2018-12-20T17:10:55.575Z,0.02
2018-12-20T17:13:23.121Z,0.04
2018-12-20T17:15:50.714Z,-0.01
2018-12-20T17:18:18.298Z,0.08
2018-12-20T17:20:45.878Z,0.09
2018-12-20T17:23:13.468Z,0.28
2018-12-20T17:25:41.063Z,0.28
2018-12-20T17:28:09.431Z,0.26
2018-12-20T17:30:36.991Z,0.27
2018-12-20T17:33:05.525Z,0.44
2018-12-20T17:35:33.156Z,0.57
2018-12-20T17:38:00.718Z,0.40
2018-12-20T17:40:28.952Z,-0.02
2018-12-20T17:42:56.867Z,0.16
2018-12-20T17:45:30.254Z,0.12
2018-12-20T17:47:57.810Z,0.29
2018-12-20T17:50:25.409Z,0.10
2018-12-20T17:52:52.966Z,0.34
2018-12-20T17:55:20.560Z,0.29
2018-12-20T17:57:48.140Z,-0.02
2018-12-20T18:00:15.920Z,0.01
2018-12-20T18:02:43.499Z,0.22
2018-12-20T18:05:11.056Z,0.31
2018-12-20T18:07:38.633Z,0.23
2018-12-20T18:10:08.915Z,0.40
2018-12-20T18:12:36.520Z,0.41
2018-12-20T18:15:05.047Z,0.35
2018-12-20T18:17:32.617Z,0.32
2018-12-20T18:20:03.919Z,0.35
2018-12-20T18:22:33.475Z,0.18
2018-12-20T18:25:01.712Z,0.08
2018-12-20T18:27:29.251Z,0.08
2018-12-20T18:29:56.851Z,0.09
2018-12-20T18:32:24.482Z,-0.09
2018-12-20T18:34:52.042Z,-0.14
2018-12-20T18:37:19.584Z,-0.16
2018-12-20T18:39:48.102Z,-0.18
2018-12-20T18:42:15.653Z,-0.07
2018-12-20T18:44:43.281Z,-0.03
2018-12-20T18:47:10.818Z,-0.12
2018-12-20T18:49:38.404Z,-0.02
2018-12-20T18:52:06.012Z,-0.11
2018-12-20T18:54:33.589Z,-0.06
2018-12-20T18:57:01.152Z,-0.08
2018-12-20T18:59:30.409Z,0.08
2018-12-20T19:01:57.944Z,0.08
2018-12-20T19:04:26.263Z,0.16
2018-12-20T19:06:53.820Z,0.21
2018-12-20T19:09:21.417Z,0.25
2018-12-20T19:11:49.789Z,0.31
2018-12-20T19:14:18.317Z,0.28
2018-12-20T19:16:45.887Z,0.31
2018-12-20T19:19:15.275Z,0.50
2018-12-20T19:21:42.838Z,0.52
2018-12-20T19:24:10.434Z,0.44
2018-12-20T19:26:37.999Z,0.21
2018-12-20T19:29:07.373Z,0.26
2018-12-20T19:31:34.956Z,0.29
2018-12-20T19:34:02.512Z,0.38
2018-12-20T19:36:30.103Z,0.50
2018-12-20T19:38:58.629Z,0.42
2018-12-20T19:41:26.997Z,0.45
2018-12-20T19:43:54.559Z,0.54
2018-12-20T19:46:22.105Z,0.58
2018-12-20T19:48:49.663Z,0.52
2018-12-20T19:51:17.261Z,0.55
2018-12-20T19:53:45.738Z,0.54
2018-12-20T19:56:13.329Z,0.40
2018-12-20T19:58:40.878Z,0.35
2018-12-20T20:01:08.495Z,0.25
2018-12-20T20:03:36.959Z,0.33
2018-12-20T20:06:05.469Z,0.53
2018-12-20T20:08:33.112Z,0.25
2018-12-20T20:11:01.481Z,0.05
2018-12-20T20:13:30.913Z,0.36
2018-12-20T20:15:58.637Z,0.23
2018-12-20T20:18:26.185Z,0.33
2018-12-20T20:20:53.772Z,0.39
2018-12-20T20:23:21.316Z,0.29
2018-12-20T20:25:49.798Z,0.21
2018-12-20T20:28:17.378Z,0.29
2018-12-20T20:30:44.913Z,0.08
2018-12-20T20:33:12.456Z,0.27
2018-12-20T20:35:40.024Z,0.36
2018-12-20T20:38:07.592Z,0.30
2018-12-20T20:40:35.181Z,0.18
2018-12-20T20:43:02.748Z,0.28
2018-12-20T20:45:31.358Z,0.15
2018-12-20T20:47:58.970Z,0.14
2018-12-20T20:50:26.528Z,0.06
2018-12-20T20:52:54.080Z,-0.02
2018-12-20T20:55:24.314Z,0.26
2018-12-20T20:57:51.856Z,0.13
2018-12-20T21:00:19.455Z,0.26
2018-12-20T21:02:46.999Z,0.35
2018-12-20T21:05:14.567Z,0.19
2018-12-20T21:07:42.163Z,0.15
2018-12-20T21:10:09.925Z,0.10
2018-12-20T21:12:37.498Z,0.22
2018-12-20T21:15:07.374Z,0.24
2018-12-20T21:17:34.955Z,0.25
2018-12-20T21:20:02.554Z,0.31
2018-12-20T21:22:30.217Z,0.55
2018-12-20T22:33:01.919Z,-0.23
2018-12-20T22:42:05.164Z,-0.34
2018-12-20T22:47:41.141Z,-0.36
2018-12-20T22:53:28.083Z,-0.45
2018-12-20T22:59:10.807Z,-0.57
2018-12-20T23:13:25.412Z,-0.63
2018-12-20T23:19:04.458Z,-0.37
2018-12-20T23:24:35.508Z,-0.34
2018-12-20T23:27:03.112Z,-0.20
2018-12-20T23:29:30.700Z,-0.32
2018-12-20T23:31:58.239Z,-0.14
2018-12-20T23:34:25.930Z,-0.15
2018-12-20T23:36:53.575Z,0.02
2018-12-20T23:39:21.993Z,0.08
2018-12-20T23:41:49.583Z,-0.27
2018-12-20T23:44:17.173Z,-0.05
2018-12-20T23:46:51.763Z,0.06
2018-12-20T23:49:19.313Z,-0.10
2018-12-20T23:51:46.888Z,-0.35
2018-12-20T23:54:14.435Z,-0.27
2018-12-20T23:56:41.979Z,-0.54
2018-12-20T23:59:09.515Z,-0.41
